Terminal Aerodrome Forecast
Issued by NWS Melbourne, FL

Home | Current Version | Previous Version | Text Only | Print | Product List | Glossary On
Versions: 1 2 3 4 5 6 7 8 9 10 11 12 13 14 15 16 17 18 19 20 21 22 23 24
000
FTUS42 KMLB 200531
TAFMCO
TAF
KMCO 200531Z 2006/2112 30005KT P6SM SKC
     FM201500 01009KT P6SM SCT020
     FM201800 04014G23KT P6SM SCT025 BKN060
     FM210200 03012KT P6SM SCT015 BKN040=

USA.gov is the U.S. government's official web portal to all federal, state and local government web resources and services.